sensor_id;sensor_type;location;lat;lon;timestamp;temperature;humidity
51613;DHT22;37694;51.748;14.326;2023-07-24T00:01:46;20.90;54.80
51613;DHT22;37694;51.748;14.326;2023-07-24T00:04:12;20.90;54.80
51613;DHT22;37694;51.748;14.326;2023-07-24T00:06:37;21.00;55.00
51613;DHT22;37694;51.748;14.326;2023-07-24T00:09:03;21.00;54.90
51613;DHT22;37694;51.748;14.326;2023-07-24T00:11:29;21.10;55.00
51613;DHT22;37694;51.748;14.326;2023-07-24T00:13:54;21.10;55.00
51613;DHT22;37694;51.748;14.326;2023-07-24T00:16:20;21.10;54.80
51613;DHT22;37694;51.748;14.326;2023-07-24T00:18:46;21.20;54.80
51613;DHT22;37694;51.748;14.326;2023-07-24T00:21:12;21.50;54.40
51613;DHT22;37694;51.748;14.326;2023-07-24T00:23:39;21.70;53.80
51613;DHT22;37694;51.748;14.326;2023-07-24T00:26:04;21.80;53.30
51613;DHT22;37694;51.748;14.326;2023-07-24T00:28:30;22.00;52.90
51613;DHT22;37694;51.748;14.326;2023-07-24T00:30:55;22.10;52.80
51613;DHT22;37694;51.748;14.326;2023-07-24T00:33:22;22.30;52.40
51613;DHT22;37694;51.748;14.326;2023-07-24T00:35:47;22.30;52.10
51613;DHT22;37694;51.748;14.326;2023-07-24T00:38:13;22.40;51.90
51613;DHT22;37694;51.748;14.326;2023-07-24T00:40:39;22.50;51.80
51613;DHT22;37694;51.748;14.326;2023-07-24T00:43:04;22.50;51.60
51613;DHT22;37694;51.748;14.326;2023-07-24T00:45:30;22.60;51.50
51613;DHT22;37694;51.748;14.326;2023-07-24T00:47:56;22.60;51.10
51613;DHT22;37694;51.748;14.326;2023-07-24T00:50:22;22.70;50.60
51613;DHT22;37694;51.748;14.326;2023-07-24T00:52:48;22.70;50.30
51613;DHT22;37694;51.748;14.326;2023-07-24T00:55:14;22.80;50.00
51613;DHT22;37694;51.748;14.326;2023-07-24T00:57:42;22.90;50.00
51613;DHT22;37694;51.748;14.326;2023-07-24T01:00:08;22.90;49.90
51613;DHT22;37694;51.748;14.326;2023-07-24T01:02:34;23.00;49.70
51613;DHT22;37694;51.748;14.326;2023-07-24T01:05:01;23.00;49.60
51613;DHT22;37694;51.748;14.326;2023-07-24T01:07:26;23.00;49.50
51613;DHT22;37694;51.748;14.326;2023-07-24T01:09:52;23.10;49.30
51613;DHT22;37694;51.748;14.326;2023-07-24T01:15:10;23.10;48.90
51613;DHT22;37694;51.748;14.326;2023-07-24T01:17:44;23.20;48.90
51613;DHT22;37694;51.748;14.326;2023-07-24T01:20:12;23.20;49.00
51613;DHT22;37694;51.748;14.326;2023-07-24T01:25:33;23.30;48.70
51613;DHT22;37694;51.748;14.326;2023-07-24T01:28:07;23.30;48.70
51613;DHT22;37694;51.748;14.326;2023-07-24T01:30:33;23.30;48.60
51613;DHT22;37694;51.748;14.326;2023-07-24T01:32:58;23.40;48.50
51613;DHT22;37694;51.748;14.326;2023-07-24T01:35:24;23.40;48.50
51613;DHT22;37694;51.748;14.326;2023-07-24T01:37:52;23.40;48.40
51613;DHT22;37694;51.748;14.326;2023-07-24T01:40:19;23.50;48.40
51613;DHT22;37694;51.748;14.326;2023-07-24T01:42:45;23.50;48.20
51613;DHT22;37694;51.748;14.326;2023-07-24T01:45:11;23.50;48.20
51613;DHT22;37694;51.748;14.326;2023-07-24T01:47:37;23.50;48.10
51613;DHT22;37694;51.748;14.326;2023-07-24T01:50:02;23.50;48.10
51613;DHT22;37694;51.748;14.326;2023-07-24T01:52:28;23.60;48.10
51613;DHT22;37694;51.748;14.326;2023-07-24T01:54:54;23.60;48.10
51613;DHT22;37694;51.748;14.326;2023-07-24T01:57:20;23.60;48.00
51613;DHT22;37694;51.748;14.326;2023-07-24T01:59:45;23.60;47.90
51613;DHT22;37694;51.748;14.326;2023-07-24T02:02:11;23.60;48.70
51613;DHT22;37694;51.748;14.326;2023-07-24T02:04:37;23.70;47.80
51613;DHT22;37694;51.748;14.326;2023-07-24T02:07:02;23.70;47.80
51613;DHT22;37694;51.748;14.326;2023-07-24T02:09:28;23.70;47.80
51613;DHT22;37694;51.748;14.326;2023-07-24T02:11:54;23.70;47.80
51613;DHT22;37694;51.748;14.326;2023-07-24T02:14:20;23.70;47.70
51613;DHT22;37694;51.748;14.326;2023-07-24T02:16:46;23.70;47.70
51613;DHT22;37694;51.748;14.326;2023-07-24T02:19:12;23.80;47.70
51613;DHT22;37694;51.748;14.326;2023-07-24T02:21:37;23.80;47.70
51613;DHT22;37694;51.748;14.326;2023-07-24T02:24:03;23.80;47.70
51613;DHT22;37694;51.748;14.326;2023-07-24T02:26:29;23.80;47.60
51613;DHT22;37694;51.748;14.326;2023-07-24T02:28:55;23.80;47.60
51613;DHT22;37694;51.748;14.326;2023-07-24T02:31:20;23.80;47.70
51613;DHT22;37694;51.748;14.326;2023-07-24T02:33:46;23.90;47.60
51613;DHT22;37694;51.748;14.326;2023-07-24T02:36:12;23.90;47.60
51613;DHT22;37694;51.748;14.326;2023-07-24T02:38:37;23.90;47.50
51613;DHT22;37694;51.748;14.326;2023-07-24T02:41:03;23.90;47.50
51613;DHT22;37694;51.748;14.326;2023-07-24T02:43:29;23.90;47.50
51613;DHT22;37694;51.748;14.326;2023-07-24T02:45:54;23.90;47.40
51613;DHT22;37694;51.748;14.326;2023-07-24T02:48:20;23.90;47.40
51613;DHT22;37694;51.748;14.326;2023-07-24T02:50:48;23.90;47.40
51613;DHT22;37694;51.748;14.326;2023-07-24T02:53:14;23.90;47.40
51613;DHT22;37694;51.748;14.326;2023-07-24T02:55:43;24.00;47.40
51613;DHT22;37694;51.748;14.326;2023-07-24T02:58:10;24.00;47.40
51613;DHT22;37694;51.748;14.326;2023-07-24T03:00:36;24.00;47.40
51613;DHT22;37694;51.748;14.326;2023-07-24T03:03:01;24.00;47.30
51613;DHT22;37694;51.748;14.326;2023-07-24T03:05:27;24.00;47.30
51613;DHT22;37694;51.748;14.326;2023-07-24T03:07:52;24.10;47.40
51613;DHT22;37694;51.748;14.326;2023-07-24T03:10:18;24.00;47.30
51613;DHT22;37694;51.748;14.326;2023-07-24T03:12:44;24.10;47.30
51613;DHT22;37694;51.748;14.326;2023-07-24T03:15:10;24.10;47.20
51613;DHT22;37694;51.748;14.326;2023-07-24T03:17:35;24.00;47.10
51613;DHT22;37694;51.748;14.326;2023-07-24T03:20:08;24.10;47.20
51613;DHT22;37694;51.748;14.326;2023-07-24T03:22:34;24.10;47.20
51613;DHT22;37694;51.748;14.326;2023-07-24T03:25:00;24.10;47.20
51613;DHT22;37694;51.748;14.326;2023-07-24T03:27:26;24.10;47.40
51613;DHT22;37694;51.748;14.326;2023-07-24T03:29:51;24.10;47.20
51613;DHT22;37694;51.748;14.326;2023-07-24T03:32:17;24.10;47.10
51613;DHT22;37694;51.748;14.326;2023-07-24T03:34:42;24.10;47.10
51613;DHT22;37694;51.748;14.326;2023-07-24T03:37:08;24.10;47.10
51613;DHT22;37694;51.748;14.326;2023-07-24T03:39:34;24.20;47.10
51613;DHT22;37694;51.748;14.326;2023-07-24T03:41:59;24.20;47.10
51613;DHT22;37694;51.748;14.326;2023-07-24T03:44:25;24.20;47.20
51613;DHT22;37694;51.748;14.326;2023-07-24T03:46:50;24.20;47.20
51613;DHT22;37694;51.748;14.326;2023-07-24T03:49:16;24.20;47.10
51613;DHT22;37694;51.748;14.326;2023-07-24T03:51:42;24.20;47.20
51613;DHT22;37694;51.748;14.326;2023-07-24T03:54:07;24.20;47.10
51613;DHT22;37694;51.748;14.326;2023-07-24T03:56:33;24.30;47.20
51613;DHT22;37694;51.748;14.326;2023-07-24T03:58:59;24.30;47.10
51613;DHT22;37694;51.748;14.326;2023-07-24T04:01:24;24.30;47.10
51613;DHT22;37694;51.748;14.326;2023-07-24T04:03:50;24.30;47.10
51613;DHT22;37694;51.748;14.326;2023-07-24T04:06:15;24.30;47.10
51613;DHT22;37694;51.748;14.326;2023-07-24T04:08:41;24.30;47.40
51613;DHT22;37694;51.748;14.326;2023-07-24T04:11:07;24.30;47.10
51613;DHT22;37694;51.748;14.326;2023-07-24T04:13:32;24.30;47.10
51613;DHT22;37694;51.748;14.326;2023-07-24T04:15:58;24.30;47.10
51613;DHT22;37694;51.748;14.326;2023-07-24T04:18:24;24.40;47.20
51613;DHT22;37694;51.748;14.326;2023-07-24T04:20:50;24.40;47.20
51613;DHT22;37694;51.748;14.326;2023-07-24T04:23:16;24.40;47.20
51613;DHT22;37694;51.748;14.326;2023-07-24T04:25:41;24.30;47.10
51613;DHT22;37694;51.748;14.326;2023-07-24T04:28:07;24.30;47.10
51613;DHT22;37694;51.748;14.326;2023-07-24T04:30:33;24.40;47.10
51613;DHT22;37694;51.748;14.326;2023-07-24T04:32:58;24.40;47.10
51613;DHT22;37694;51.748;14.326;2023-07-24T04:35:24;24.40;47.10
51613;DHT22;37694;51.748;14.326;2023-07-24T04:37:51;24.40;47.10
51613;DHT22;37694;51.748;14.326;2023-07-24T04:40:17;24.40;47.30
51613;DHT22;37694;51.748;14.326;2023-07-24T04:42:43;24.40;47.30
51613;DHT22;37694;51.748;14.326;2023-07-24T04:45:09;24.50;47.30
51613;DHT22;37694;51.748;14.326;2023-07-24T04:47:34;24.40;47.40
51613;DHT22;37694;51.748;14.326;2023-07-24T04:50:02;24.50;47.50
51613;DHT22;37694;51.748;14.326;2023-07-24T04:52:28;24.50;47.40
51613;DHT22;37694;51.748;14.326;2023-07-24T04:54:53;24.50;47.30
51613;DHT22;37694;51.748;14.326;2023-07-24T04:57:19;24.50;47.30
51613;DHT22;37694;51.748;14.326;2023-07-24T04:59:45;24.50;47.20
51613;DHT22;37694;51.748;14.326;2023-07-24T05:02:10;24.50;47.10
51613;DHT22;37694;51.748;14.326;2023-07-24T05:04:36;24.50;47.10
51613;DHT22;37694;51.748;14.326;2023-07-24T05:07:02;24.50;47.10
51613;DHT22;37694;51.748;14.326;2023-07-24T05:09:27;24.50;47.90
51613;DHT22;37694;51.748;14.326;2023-07-24T05:11:53;24.50;47.00
51613;DHT22;37694;51.748;14.326;2023-07-24T05:14:19;24.50;47.00
51613;DHT22;37694;51.748;14.326;2023-07-24T05:16:44;24.60;47.10
51613;DHT22;37694;51.748;14.326;2023-07-24T05:19:10;24.60;47.10
51613;DHT22;37694;51.748;14.326;2023-07-24T05:21:36;24.60;47.00
51613;DHT22;37694;51.748;14.326;2023-07-24T05:24:01;24.60;47.10
51613;DHT22;37694;51.748;14.326;2023-07-24T05:26:27;24.60;47.40
51613;DHT22;37694;51.748;14.326;2023-07-24T05:28:53;24.60;47.70
51613;DHT22;37694;51.748;14.326;2023-07-24T05:31:18;24.60;47.80
51613;DHT22;37694;51.748;14.326;2023-07-24T05:33:44;24.60;48.10
51613;DHT22;37694;51.748;14.326;2023-07-24T05:36:10;24.70;48.00
51613;DHT22;37694;51.748;14.326;2023-07-24T05:38:35;24.70;47.80
51613;DHT22;37694;51.748;14.326;2023-07-24T05:41:03;24.70;47.90
51613;DHT22;37694;51.748;14.326;2023-07-24T05:43:30;24.70;48.00
51613;DHT22;37694;51.748;14.326;2023-07-24T05:45:56;24.70;48.10
51613;DHT22;37694;51.748;14.326;2023-07-24T05:48:23;24.70;48.20
51613;DHT22;37694;51.748;14.326;2023-07-24T05:50:49;24.70;48.20
51613;DHT22;37694;51.748;14.326;2023-07-24T05:53:15;24.80;48.30
51613;DHT22;37694;51.748;14.326;2023-07-24T05:55:41;24.80;48.30
51613;DHT22;37694;51.748;14.326;2023-07-24T05:58:08;24.80;48.30
51613;DHT22;37694;51.748;14.326;2023-07-24T06:00:34;24.90;48.60
51613;DHT22;37694;51.748;14.326;2023-07-24T06:03:00;24.90;48.40
51613;DHT22;37694;51.748;14.326;2023-07-24T06:05:26;24.90;48.30
51613;DHT22;37694;51.748;14.326;2023-07-24T06:07:52;24.90;48.20
51613;DHT22;37694;51.748;14.326;2023-07-24T06:10:17;24.90;48.20
51613;DHT22;37694;51.748;14.326;2023-07-24T06:12:43;24.90;48.10
51613;DHT22;37694;51.748;14.326;2023-07-24T06:15:09;25.00;48.10
51613;DHT22;37694;51.748;14.326;2023-07-24T06:17:35;25.00;48.10
51613;DHT22;37694;51.748;14.326;2023-07-24T06:20:00;25.00;48.20
51613;DHT22;37694;51.748;14.326;2023-07-24T06:22:26;25.00;48.30
51613;DHT22;37694;51.748;14.326;2023-07-24T06:24:51;25.00;48.40
51613;DHT22;37694;51.748;14.326;2023-07-24T06:27:17;25.10;48.60
51613;DHT22;37694;51.748;14.326;2023-07-24T06:29:43;25.10;48.60
51613;DHT22;37694;51.748;14.326;2023-07-24T06:32:08;25.10;48.80
51613;DHT22;37694;51.748;14.326;2023-07-24T06:34:34;25.10;48.90
51613;DHT22;37694;51.748;14.326;2023-07-24T06:37:00;25.10;49.00
51613;DHT22;37694;51.748;14.326;2023-07-24T06:39:26;25.00;48.30
51613;DHT22;37694;51.748;14.326;2023-07-24T06:41:54;24.60;47.90
51613;DHT22;37694;51.748;14.326;2023-07-24T06:44:19;24.10;49.40
51613;DHT22;37694;51.748;14.326;2023-07-24T06:46:45;23.70;51.80
51613;DHT22;37694;51.748;14.326;2023-07-24T06:49:11;23.50;53.40
51613;DHT22;37694;51.748;14.326;2023-07-24T06:51:36;23.40;54.10
51613;DHT22;37694;51.748;14.326;2023-07-24T06:54:04;23.30;54.30
51613;DHT22;37694;51.748;14.326;2023-07-24T06:56:30;23.20;54.30
51613;DHT22;37694;51.748;14.326;2023-07-24T06:58:55;23.20;54.00
51613;DHT22;37694;51.748;14.326;2023-07-24T07:01:21;23.20;53.80
51613;DHT22;37694;51.748;14.326;2023-07-24T07:03:47;23.20;53.70
51613;DHT22;37694;51.748;14.326;2023-07-24T07:06:12;23.10;53.60
51613;DHT22;37694;51.748;14.326;2023-07-24T07:08:38;23.10;53.50
51613;DHT22;37694;51.748;14.326;2023-07-24T07:11:04;23.10;53.40
51613;DHT22;37694;51.748;14.326;2023-07-24T07:13:29;23.00;53.20
51613;DHT22;37694;51.748;14.326;2023-07-24T07:15:55;23.00;53.60
51613;DHT22;37694;51.748;14.326;2023-07-24T07:18:21;23.00;53.60
51613;DHT22;37694;51.748;14.326;2023-07-24T07:20:50;23.00;53.50
51613;DHT22;37694;51.748;14.326;2023-07-24T07:23:16;22.90;53.40
51613;DHT22;37694;51.748;14.326;2023-07-24T07:25:42;23.00;53.40
51613;DHT22;37694;51.748;14.326;2023-07-24T07:28:15;23.00;53.30
51613;DHT22;37694;51.748;14.326;2023-07-24T07:30:41;22.90;53.20
51613;DHT22;37694;51.748;14.326;2023-07-24T07:33:07;22.90;53.20
51613;DHT22;37694;51.748;14.326;2023-07-24T07:35:34;22.90;53.30
51613;DHT22;37694;51.748;14.326;2023-07-24T07:38:00;22.90;53.20
51613;DHT22;37694;51.748;14.326;2023-07-24T07:40:26;22.90;53.10
51613;DHT22;37694;51.748;14.326;2023-07-24T07:42:56;22.90;53.10
51613;DHT22;37694;51.748;14.326;2023-07-24T07:45:23;22.80;53.30
51613;DHT22;37694;51.748;14.326;2023-07-24T07:47:49;22.80;53.30
51613;DHT22;37694;51.748;14.326;2023-07-24T07:50:15;22.70;53.20
51613;DHT22;37694;51.748;14.326;2023-07-24T07:52:41;22.70;53.20
51613;DHT22;37694;51.748;14.326;2023-07-24T07:55:07;22.70;53.20
51613;DHT22;37694;51.748;14.326;2023-07-24T07:57:37;22.70;53.10
51613;DHT22;37694;51.748;14.326;2023-07-24T08:00:04;22.70;53.10
51613;DHT22;37694;51.748;14.326;2023-07-24T08:02:31;22.80;53.10
51613;DHT22;37694;51.748;14.326;2023-07-24T08:04:57;22.70;53.90
51613;DHT22;37694;51.748;14.326;2023-07-24T08:07:23;22.70;53.00
51613;DHT22;37694;51.748;14.326;2023-07-24T08:09:49;22.70;53.00
51613;DHT22;37694;51.748;14.326;2023-07-24T08:12:14;22.70;53.10
51613;DHT22;37694;51.748;14.326;2023-07-24T08:14:40;22.70;53.10
51613;DHT22;37694;51.748;14.326;2023-07-24T08:17:06;22.70;53.20
51613;DHT22;37694;51.748;14.326;2023-07-24T08:19:31;22.70;53.20
51613;DHT22;37694;51.748;14.326;2023-07-24T08:21:57;22.70;53.00
51613;DHT22;37694;51.748;14.326;2023-07-24T08:24:23;22.70;53.10
51613;DHT22;37694;51.748;14.326;2023-07-24T08:26:48;22.70;52.90
51613;DHT22;37694;51.748;14.326;2023-07-24T08:29:14;22.70;52.90
51613;DHT22;37694;51.748;14.326;2023-07-24T08:31:40;22.70;52.90
51613;DHT22;37694;51.748;14.326;2023-07-24T08:34:05;22.70;52.80
51613;DHT22;37694;51.748;14.326;2023-07-24T08:36:31;22.70;52.80
51613;DHT22;37694;51.748;14.326;2023-07-24T08:38:57;22.70;52.80
51613;DHT22;37694;51.748;14.326;2023-07-24T08:41:23;22.70;53.70
51613;DHT22;37694;51.748;14.326;2023-07-24T08:43:49;22.70;52.90
51613;DHT22;37694;51.748;14.326;2023-07-24T08:46:18;22.60;53.00
51613;DHT22;37694;51.748;14.326;2023-07-24T08:48:43;22.60;52.90
51613;DHT22;37694;51.748;14.326;2023-07-24T08:51:11;22.70;52.90
51613;DHT22;37694;51.748;14.326;2023-07-24T08:53:39;22.60;52.80
51613;DHT22;37694;51.748;14.326;2023-07-24T08:56:09;22.60;52.80
51613;DHT22;37694;51.748;14.326;2023-07-24T08:58:36;22.60;52.90
51613;DHT22;37694;51.748;14.326;2023-07-24T09:01:03;22.60;52.80
51613;DHT22;37694;51.748;14.326;2023-07-24T09:03:30;22.60;52.80
51613;DHT22;37694;51.748;14.326;2023-07-24T09:05:56;22.60;52.90
51613;DHT22;37694;51.748;14.326;2023-07-24T09:08:32;22.60;52.80
51613;DHT22;37694;51.748;14.326;2023-07-24T09:10:59;22.60;52.90
51613;DHT22;37694;51.748;14.326;2023-07-24T09:13:25;22.60;53.00
51613;DHT22;37694;51.748;14.326;2023-07-24T09:15:51;22.50;52.90
51613;DHT22;37694;51.748;14.326;2023-07-24T09:18:17;22.60;53.00
51613;DHT22;37694;51.748;14.326;2023-07-24T09:20:44;22.50;52.90
51613;DHT22;37694;51.748;14.326;2023-07-24T09:23:12;22.50;53.00
51613;DHT22;37694;51.748;14.326;2023-07-24T09:25:39;22.50;53.00
51613;DHT22;37694;51.748;14.326;2023-07-24T09:28:10;22.50;52.90
51613;DHT22;37694;51.748;14.326;2023-07-24T09:30:36;22.60;52.90
51613;DHT22;37694;51.748;14.326;2023-07-24T09:33:01;22.50;52.80
51613;DHT22;37694;51.748;14.326;2023-07-24T09:35:27;22.60;52.90
51613;DHT22;37694;51.748;14.326;2023-07-24T09:38:04;22.60;52.80
51613;DHT22;37694;51.748;14.326;2023-07-24T09:40:40;22.60;52.70
51613;DHT22;37694;51.748;14.326;2023-07-24T09:43:23;22.50;52.80
51613;DHT22;37694;51.748;14.326;2023-07-24T09:45:50;22.50;52.90
51613;DHT22;37694;51.748;14.326;2023-07-24T09:48:17;22.40;53.00
51613;DHT22;37694;51.748;14.326;2023-07-24T09:50:48;22.50;53.00
51613;DHT22;37694;51.748;14.326;2023-07-24T09:53:21;22.50;52.80
51613;DHT22;37694;51.748;14.326;2023-07-24T09:55:57;22.50;52.80
51613;DHT22;37694;51.748;14.326;2023-07-24T09:58:24;22.50;53.00
51613;DHT22;37694;51.748;14.326;2023-07-24T10:00:51;22.40;53.10
51613;DHT22;37694;51.748;14.326;2023-07-24T10:03:17;22.40;53.00
51613;DHT22;37694;51.748;14.326;2023-07-24T10:05:44;22.50;52.90
51613;DHT22;37694;51.748;14.326;2023-07-24T10:08:11;22.50;52.90
51613;DHT22;37694;51.748;14.326;2023-07-24T10:10:38;22.50;52.90
51613;DHT22;37694;51.748;14.326;2023-07-24T10:13:05;22.40;53.00
51613;DHT22;37694;51.748;14.326;2023-07-24T10:15:31;22.40;53.10
51613;DHT22;37694;51.748;14.326;2023-07-24T10:18:05;22.40;53.10
51613;DHT22;37694;51.748;14.326;2023-07-24T10:20:40;22.40;53.00
51613;DHT22;37694;51.748;14.326;2023-07-24T10:23:08;22.40;52.90
51613;DHT22;37694;51.748;14.326;2023-07-24T10:25:36;22.40;52.90
51613;DHT22;37694;51.748;14.326;2023-07-24T10:28:06;22.40;52.90
51613;DHT22;37694;51.748;14.326;2023-07-24T10:30:36;22.40;52.80
51613;DHT22;37694;51.748;14.326;2023-07-24T10:33:12;22.40;52.90
51613;DHT22;37694;51.748;14.326;2023-07-24T10:35:40;22.50;52.80
51613;DHT22;37694;51.748;14.326;2023-07-24T10:38:06;22.50;52.70
51613;DHT22;37694;51.748;14.326;2023-07-24T10:40:33;22.50;52.70
51613;DHT22;37694;51.748;14.326;2023-07-24T10:43:09;22.50;52.80
51613;DHT22;37694;51.748;14.326;2023-07-24T10:45:54;22.40;52.90
51613;DHT22;37694;51.748;14.326;2023-07-24T10:48:21;22.50;52.70
51613;DHT22;37694;51.748;14.326;2023-07-24T10:50:48;22.50;52.80
51613;DHT22;37694;51.748;14.326;2023-07-24T10:53:16;22.50;52.80
51613;DHT22;37694;51.748;14.326;2023-07-24T10:55:46;22.50;52.80
51613;DHT22;37694;51.748;14.326;2023-07-24T10:58:13;22.50;52.70
51613;DHT22;37694;51.748;14.326;2023-07-24T11:00:40;22.50;52.70
51613;DHT22;37694;51.748;14.326;2023-07-24T11:03:10;22.50;52.70
51613;DHT22;37694;51.748;14.326;2023-07-24T11:05:40;22.50;52.60
51613;DHT22;37694;51.748;14.326;2023-07-24T11:08:17;22.50;52.70
51613;DHT22;37694;51.748;14.326;2023-07-24T11:10:53;22.50;52.50
51613;DHT22;37694;51.748;14.326;2023-07-24T11:13:22;22.50;52.60
51613;DHT22;37694;51.748;14.326;2023-07-24T11:15:49;22.50;52.80
51613;DHT22;37694;51.748;14.326;2023-07-24T11:18:15;22.50;52.70
51613;DHT22;37694;51.748;14.326;2023-07-24T11:20:47;22.50;52.60
51613;DHT22;37694;51.748;14.326;2023-07-24T11:23:13;22.60;52.50
51613;DHT22;37694;51.748;14.326;2023-07-24T11:25:39;22.50;52.50
51613;DHT22;37694;51.748;14.326;2023-07-24T11:28:06;22.60;52.50
51613;DHT22;37694;51.748;14.326;2023-07-24T11:30:32;22.60;52.40
51613;DHT22;37694;51.748;14.326;2023-07-24T11:33:00;22.60;52.30
51613;DHT22;37694;51.748;14.326;2023-07-24T11:35:27;22.60;52.30
51613;DHT22;37694;51.748;14.326;2023-07-24T11:37:52;22.60;52.30
51613;DHT22;37694;51.748;14.326;2023-07-24T11:40:18;22.60;52.30
51613;DHT22;37694;51.748;14.326;2023-07-24T11:42:49;22.60;52.30
51613;DHT22;37694;51.748;14.326;2023-07-24T11:45:15;22.60;52.30
51613;DHT22;37694;51.748;14.326;2023-07-24T11:47:50;22.70;52.20
51613;DHT22;37694;51.748;14.326;2023-07-24T11:50:18;22.70;52.10
51613;DHT22;37694;51.748;14.326;2023-07-24T11:52:48;22.70;52.10
51613;DHT22;37694;51.748;14.326;2023-07-24T11:55:19;22.80;52.20
51613;DHT22;37694;51.748;14.326;2023-07-24T11:57:58;22.80;52.00
51613;DHT22;37694;51.748;14.326;2023-07-24T12:00:25;22.70;52.80
51613;DHT22;37694;51.748;14.326;2023-07-24T12:02:51;22.70;52.10
51613;DHT22;37694;51.748;14.326;2023-07-24T12:05:17;22.70;52.10
51613;DHT22;37694;51.748;14.326;2023-07-24T12:07:44;22.70;52.20
51613;DHT22;37694;51.748;14.326;2023-07-24T12:10:12;22.70;52.30
51613;DHT22;37694;51.748;14.326;2023-07-24T12:12:44;22.70;52.30
51613;DHT22;37694;51.748;14.326;2023-07-24T12:15:11;22.60;52.50
51613;DHT22;37694;51.748;14.326;2023-07-24T12:17:37;22.60;52.40
51613;DHT22;37694;51.748;14.326;2023-07-24T12:20:07;22.60;52.30
51613;DHT22;37694;51.748;14.326;2023-07-24T12:22:38;22.70;52.20
51613;DHT22;37694;51.748;14.326;2023-07-24T12:25:05;22.70;52.30
51613;DHT22;37694;51.748;14.326;2023-07-24T12:27:31;22.70;52.20
51613;DHT22;37694;51.748;14.326;2023-07-24T12:29:57;22.70;52.20
51613;DHT22;37694;51.748;14.326;2023-07-24T12:32:23;22.70;52.10
51613;DHT22;37694;51.748;14.326;2023-07-24T12:34:50;22.70;53.00
51613;DHT22;37694;51.748;14.326;2023-07-24T12:37:20;22.70;52.10
51613;DHT22;37694;51.748;14.326;2023-07-24T12:39:47;22.70;52.10
51613;DHT22;37694;51.748;14.326;2023-07-24T12:42:13;22.70;52.30
51613;DHT22;37694;51.748;14.326;2023-07-24T12:44:38;22.70;52.50
51613;DHT22;37694;51.748;14.326;2023-07-24T12:47:05;22.60;52.40
51613;DHT22;37694;51.748;14.326;2023-07-24T12:49:30;22.60;52.40
51613;DHT22;37694;51.748;14.326;2023-07-24T12:51:56;22.70;52.40
51613;DHT22;37694;51.748;14.326;2023-07-24T12:54:22;22.70;52.40
51613;DHT22;37694;51.748;14.326;2023-07-24T12:56:49;22.70;52.40
51613;DHT22;37694;51.748;14.326;2023-07-24T12:59:15;22.60;52.40
51613;DHT22;37694;51.748;14.326;2023-07-24T13:01:41;22.60;52.50
51613;DHT22;37694;51.748;14.326;2023-07-24T13:04:07;22.60;52.50
51613;DHT22;37694;51.748;14.326;2023-07-24T13:06:33;22.60;52.50
51613;DHT22;37694;51.748;14.326;2023-07-24T13:08:59;22.60;52.60
51613;DHT22;37694;51.748;14.326;2023-07-24T13:11:25;22.60;52.40
51613;DHT22;37694;51.748;14.326;2023-07-24T13:13:53;22.50;52.70
51613;DHT22;37694;51.748;14.326;2023-07-24T13:16:19;22.60;52.80
51613;DHT22;37694;51.748;14.326;2023-07-24T13:18:45;22.50;52.70
51613;DHT22;37694;51.748;14.326;2023-07-24T13:21:10;22.50;52.80
51613;DHT22;37694;51.748;14.326;2023-07-24T13:23:36;22.50;53.70
51613;DHT22;37694;51.748;14.326;2023-07-24T13:26:02;22.60;53.90
51613;DHT22;37694;51.748;14.326;2023-07-24T13:28:28;22.60;53.70
51613;DHT22;37694;51.748;14.326;2023-07-24T13:30:54;22.60;53.80
51613;DHT22;37694;51.748;14.326;2023-07-24T13:33:20;22.60;53.80
51613;DHT22;37694;51.748;14.326;2023-07-24T13:35:47;22.50;53.70
51613;DHT22;37694;51.748;14.326;2023-07-24T13:38:13;22.60;53.80
51613;DHT22;37694;51.748;14.326;2023-07-24T13:40:40;22.60;53.80
51613;DHT22;37694;51.748;14.326;2023-07-24T13:43:05;22.50;53.90
51613;DHT22;37694;51.748;14.326;2023-07-24T13:45:31;22.50;54.20
51613;DHT22;37694;51.748;14.326;2023-07-24T13:47:57;22.50;54.30
51613;DHT22;37694;51.748;14.326;2023-07-24T13:50:27;22.50;54.40
51613;DHT22;37694;51.748;14.326;2023-07-24T13:52:53;22.50;55.30
51613;DHT22;37694;51.748;14.326;2023-07-24T13:55:19;22.50;54.40
51613;DHT22;37694;51.748;14.326;2023-07-24T13:57:44;22.50;54.30
51613;DHT22;37694;51.748;14.326;2023-07-24T14:00:10;22.50;54.40
51613;DHT22;37694;51.748;14.326;2023-07-24T14:02:36;22.50;54.40
51613;DHT22;37694;51.748;14.326;2023-07-24T14:05:02;22.50;54.60
51613;DHT22;37694;51.748;14.326;2023-07-24T14:07:28;22.40;54.60
51613;DHT22;37694;51.748;14.326;2023-07-24T14:09:53;22.30;55.30
51613;DHT22;37694;51.748;14.326;2023-07-24T14:12:19;22.20;54.30
51613;DHT22;37694;51.748;14.326;2023-07-24T14:14:44;22.20;54.40
51613;DHT22;37694;51.748;14.326;2023-07-24T14:17:10;22.10;54.40
51613;DHT22;37694;51.748;14.326;2023-07-24T14:19:36;22.10;54.40
51613;DHT22;37694;51.748;14.326;2023-07-24T14:22:02;22.00;54.40
51613;DHT22;37694;51.748;14.326;2023-07-24T14:24:28;22.00;54.30
51613;DHT22;37694;51.748;14.326;2023-07-24T14:26:53;22.00;54.20
51613;DHT22;37694;51.748;14.326;2023-07-24T14:29:19;21.90;53.90
51613;DHT22;37694;51.748;14.326;2023-07-24T14:31:45;21.90;53.70
51613;DHT22;37694;51.748;14.326;2023-07-24T14:34:10;21.90;53.50
51613;DHT22;37694;51.748;14.326;2023-07-24T14:36:38;21.90;53.10
51613;DHT22;37694;51.748;14.326;2023-07-24T14:39:04;21.90;52.90
51613;DHT22;37694;51.748;14.326;2023-07-24T14:41:30;21.80;52.90
51613;DHT22;37694;51.748;14.326;2023-07-24T14:43:55;21.80;53.10
51613;DHT22;37694;51.748;14.326;2023-07-24T14:46:21;21.80;53.10
51613;DHT22;37694;51.748;14.326;2023-07-24T14:48:47;21.80;53.10
51613;DHT22;37694;51.748;14.326;2023-07-24T14:51:12;21.80;52.90
51613;DHT22;37694;51.748;14.326;2023-07-24T14:53:38;21.80;52.80
51613;DHT22;37694;51.748;14.326;2023-07-24T14:56:04;21.80;52.90
51613;DHT22;37694;51.748;14.326;2023-07-24T14:58:30;21.80;53.10
51613;DHT22;37694;51.748;14.326;2023-07-24T15:00:55;21.80;53.10
51613;DHT22;37694;51.748;14.326;2023-07-24T15:03:22;21.80;52.90
51613;DHT22;37694;51.748;14.326;2023-07-24T15:05:48;21.80;53.00
51613;DHT22;37694;51.748;14.326;2023-07-24T15:08:14;21.80;52.60
51613;DHT22;37694;51.748;14.326;2023-07-24T15:10:39;21.80;52.50
51613;DHT22;37694;51.748;14.326;2023-07-24T15:13:05;21.80;52.40
51613;DHT22;37694;51.748;14.326;2023-07-24T15:15:31;21.80;52.20
51613;DHT22;37694;51.748;14.326;2023-07-24T15:17:58;21.80;52.00